sensor_id;sensor_type;location;lat;lon;timestamp;P1;durP1;ratioP1;P2;durP2;ratioP2
68214;SDS011;55036;52.138;5.236;2022-07-29T00:00:57;4.88;;;1.65;;
68214;SDS011;55036;52.138;5.236;2022-07-29T00:03:24;3.22;;;1.15;;
68214;SDS011;55036;52.138;5.236;2022-07-29T00:05:51;3.65;;;1.50;;
68214;SDS011;55036;52.138;5.236;2022-07-29T00:08:19;2.47;;;1.30;;
68214;SDS011;55036;52.138;5.236;2022-07-29T00:10:46;5.45;;;1.42;;
68214;SDS011;55036;52.138;5.236;2022-07-29T00:13:13;5.43;;;1.35;;
68214;SDS011;55036;52.138;5.236;2022-07-29T00:15:40;5.97;;;1.35;;
68214;SDS011;55036;52.138;5.236;2022-07-29T00:18:06;4.57;;;1.42;;
68214;SDS011;55036;52.138;5.236;2022-07-29T00:20:33;4.53;;;1.35;;
68214;SDS011;55036;52.138;5.236;2022-07-29T00:23:00;2.83;;;1.40;;
68214;SDS011;55036;52.138;5.236;2022-07-29T00:25:27;3.50;;;1.30;;
68214;SDS011;55036;52.138;5.236;2022-07-29T00:27:53;5.28;;;1.23;;
68214;SDS011;55036;52.138;5.236;2022-07-29T00:30:20;3.60;;;1.27;;
68214;SDS011;55036;52.138;5.236;2022-07-29T00:32:47;4.50;;;1.30;;
68214;SDS011;55036;52.138;5.236;2022-07-29T00:35:14;11.15;;;1.58;;
68214;SDS011;55036;52.138;5.236;2022-07-29T00:37:59;4.80;;;1.30;;
68214;SDS011;55036;52.138;5.236;2022-07-29T00:40:27;3.63;;;1.45;;
68214;SDS011;55036;52.138;5.236;2022-07-29T00:42:54;1.75;;;1.38;;
68214;SDS011;55036;52.138;5.236;2022-07-29T00:45:20;3.63;;;1.23;;
68214;SDS011;55036;52.138;5.236;2022-07-29T00:47:48;2.47;;;1.30;;
68214;SDS011;55036;52.138;5.236;2022-07-29T00:50:15;2.42;;;1.17;;
68214;SDS011;55036;52.138;5.236;2022-07-29T00:52:42;3.63;;;1.63;;
68214;SDS011;55036;52.138;5.236;2022-07-29T00:55:10;2.60;;;1.45;;
68214;SDS011;55036;52.138;5.236;2022-07-29T00:57:39;4.78;;;1.50;;
68214;SDS011;55036;52.138;5.236;2022-07-29T01:00:08;2.15;;;1.35;;
68214;SDS011;55036;52.138;5.236;2022-07-29T01:02:37;2.13;;;1.05;;
68214;SDS011;55036;52.138;5.236;2022-07-29T01:05:04;5.45;;;1.33;;
68214;SDS011;55036;52.138;5.236;2022-07-29T01:07:32;4.95;;;1.25;;
68214;SDS011;55036;52.138;5.236;2022-07-29T01:10:02;6.03;;;1.40;;
68214;SDS011;55036;52.138;5.236;2022-07-29T01:12:30;4.65;;;1.17;;
68214;SDS011;55036;52.138;5.236;2022-07-29T01:15:00;2.35;;;1.15;;
68214;SDS011;55036;52.138;5.236;2022-07-29T01:17:32;6.15;;;1.65;;
68214;SDS011;55036;52.138;5.236;2022-07-29T01:20:24;3.13;;;1.13;;
68214;SDS011;55036;52.138;5.236;2022-07-29T01:29:03;2.13;;;1.10;;
68214;SDS011;55036;52.138;5.236;2022-07-29T01:37:20;3.13;;;1.40;;
68214;SDS011;55036;52.138;5.236;2022-07-29T01:39:51;3.75;;;1.45;;
68214;SDS011;55036;52.138;5.236;2022-07-29T01:42:28;5.40;;;1.45;;
68214;SDS011;55036;52.138;5.236;2022-07-29T01:44:57;4.38;;;1.38;;
68214;SDS011;55036;52.138;5.236;2022-07-29T01:47:32;2.75;;;1.20;;
68214;SDS011;55036;52.138;5.236;2022-07-29T01:50:05;4.32;;;1.63;;
68214;SDS011;55036;52.138;5.236;2022-07-29T01:52:58;3.00;;;1.38;;
68214;SDS011;55036;52.138;5.236;2022-07-29T01:55:28;2.05;;;1.27;;
68214;SDS011;55036;52.138;5.236;2022-07-29T01:57:57;4.90;;;1.50;;
68214;SDS011;55036;52.138;5.236;2022-07-29T02:00:26;6.80;;;1.52;;
68214;SDS011;55036;52.138;5.236;2022-07-29T02:02:54;3.20;;;1.50;;
68214;SDS011;55036;52.138;5.236;2022-07-29T02:05:22;5.25;;;1.92;;
68214;SDS011;55036;52.138;5.236;2022-07-29T02:07:53;1.98;;;1.35;;
68214;SDS011;55036;52.138;5.236;2022-07-29T02:10:23;3.83;;;1.35;;
68214;SDS011;55036;52.138;5.236;2022-07-29T02:12:53;4.23;;;1.50;;
68214;SDS011;55036;52.138;5.236;2022-07-29T02:15:25;3.78;;;1.58;;
68214;SDS011;55036;52.138;5.236;2022-07-29T02:17:55;4.53;;;1.70;;
68214;SDS011;55036;52.138;5.236;2022-07-29T02:20:26;4.20;;;2.00;;
68214;SDS011;55036;52.138;5.236;2022-07-29T02:22:55;4.80;;;1.77;;
68214;SDS011;55036;52.138;5.236;2022-07-29T02:25:24;4.70;;;1.52;;
68214;SDS011;55036;52.138;5.236;2022-07-29T02:28:03;4.45;;;1.70;;
68214;SDS011;55036;52.138;5.236;2022-07-29T02:30:32;3.53;;;1.73;;
68214;SDS011;55036;52.138;5.236;2022-07-29T02:33:02;3.30;;;1.55;;
68214;SDS011;55036;52.138;5.236;2022-07-29T02:35:30;3.67;;;1.83;;
68214;SDS011;55036;52.138;5.236;2022-07-29T02:38:00;2.95;;;1.63;;
68214;SDS011;55036;52.138;5.236;2022-07-29T02:40:47;3.15;;;1.67;;
68214;SDS011;55036;52.138;5.236;2022-07-29T02:43:16;5.00;;;1.92;;
68214;SDS011;55036;52.138;5.236;2022-07-29T02:45:44;3.92;;;1.58;;
68214;SDS011;55036;52.138;5.236;2022-07-29T02:48:17;2.30;;;1.63;;
68214;SDS011;55036;52.138;5.236;2022-07-29T02:50:48;7.53;;;1.92;;
68214;SDS011;55036;52.138;5.236;2022-07-29T02:53:22;3.50;;;1.63;;
68214;SDS011;55036;52.138;5.236;2022-07-29T02:56:01;7.28;;;1.67;;
68214;SDS011;55036;52.138;5.236;2022-07-29T02:58:38;4.68;;;1.65;;
68214;SDS011;55036;52.138;5.236;2022-07-29T03:01:15;3.78;;;1.95;;
68214;SDS011;55036;52.138;5.236;2022-07-29T03:03:47;3.05;;;1.60;;
68214;SDS011;55036;52.138;5.236;2022-07-29T03:06:16;3.65;;;1.70;;
68214;SDS011;55036;52.138;5.236;2022-07-29T03:09:03;3.33;;;1.55;;
68214;SDS011;55036;52.138;5.236;2022-07-29T03:11:38;3.30;;;1.60;;
68214;SDS011;55036;52.138;5.236;2022-07-29T03:14:16;2.67;;;1.60;;
68214;SDS011;55036;52.138;5.236;2022-07-29T03:16:46;3.53;;;1.52;;
68214;SDS011;55036;52.138;5.236;2022-07-29T03:19:13;3.00;;;1.65;;
68214;SDS011;55036;52.138;5.236;2022-07-29T03:21:40;5.03;;;1.80;;
68214;SDS011;55036;52.138;5.236;2022-07-29T03:24:07;4.20;;;1.35;;
68214;SDS011;55036;52.138;5.236;2022-07-29T03:26:36;6.40;;;1.77;;
68214;SDS011;55036;52.138;5.236;2022-07-29T03:29:03;3.40;;;1.67;;
68214;SDS011;55036;52.138;5.236;2022-07-29T03:31:30;4.10;;;1.77;;
68214;SDS011;55036;52.138;5.236;2022-07-29T03:33:58;3.10;;;1.42;;
68214;SDS011;55036;52.138;5.236;2022-07-29T03:36:25;3.10;;;1.60;;
68214;SDS011;55036;52.138;5.236;2022-07-29T03:38:52;3.97;;;1.60;;
68214;SDS011;55036;52.138;5.236;2022-07-29T03:41:19;2.80;;;1.73;;
68214;SDS011;55036;52.138;5.236;2022-07-29T03:43:48;3.92;;;1.60;;
68214;SDS011;55036;52.138;5.236;2022-07-29T03:46:17;2.95;;;1.60;;
68214;SDS011;55036;52.138;5.236;2022-07-29T03:48:48;4.32;;;1.63;;
68214;SDS011;55036;52.138;5.236;2022-07-29T03:53:59;2.20;;;1.40;;
68214;SDS011;55036;52.138;5.236;2022-07-29T03:56:42;5.25;;;1.75;;
68214;SDS011;55036;52.138;5.236;2022-07-29T03:59:14;5.22;;;1.65;;
68214;SDS011;55036;52.138;5.236;2022-07-29T04:01:43;4.13;;;1.80;;
68214;SDS011;55036;52.138;5.236;2022-07-29T04:04:10;6.38;;;1.80;;
68214;SDS011;55036;52.138;5.236;2022-07-29T04:06:41;4.32;;;1.58;;
68214;SDS011;55036;52.138;5.236;2022-07-29T04:09:10;2.80;;;1.40;;
68214;SDS011;55036;52.138;5.236;2022-07-29T04:11:38;4.07;;;1.95;;
68214;SDS011;55036;52.138;5.236;2022-07-29T04:14:26;5.78;;;1.70;;
68214;SDS011;55036;52.138;5.236;2022-07-29T04:16:53;2.40;;;1.42;;
68214;SDS011;55036;52.138;5.236;2022-07-29T04:19:19;3.80;;;1.50;;
68214;SDS011;55036;52.138;5.236;2022-07-29T04:21:46;3.72;;;1.50;;
68214;SDS011;55036;52.138;5.236;2022-07-29T04:24:13;5.60;;;1.60;;
68214;SDS011;55036;52.138;5.236;2022-07-29T04:26:40;2.75;;;1.63;;
68214;SDS011;55036;52.138;5.236;2022-07-29T04:29:07;4.07;;;1.50;;
68214;SDS011;55036;52.138;5.236;2022-07-29T04:31:34;2.50;;;1.63;;
68214;SDS011;55036;52.138;5.236;2022-07-29T04:34:01;2.20;;;1.40;;
68214;SDS011;55036;52.138;5.236;2022-07-29T04:36:27;3.42;;;1.65;;
68214;SDS011;55036;52.138;5.236;2022-07-29T04:38:55;3.92;;;1.70;;
68214;SDS011;55036;52.138;5.236;2022-07-29T04:41:22;4.90;;;1.48;;
68214;SDS011;55036;52.138;5.236;2022-07-29T04:43:58;3.83;;;1.80;;
68214;SDS011;55036;52.138;5.236;2022-07-29T04:46:27;2.95;;;2.00;;
68214;SDS011;55036;52.138;5.236;2022-07-29T04:48:54;3.30;;;1.98;;
68214;SDS011;55036;52.138;5.236;2022-07-29T04:51:21;4.13;;;1.63;;
68214;SDS011;55036;52.138;5.236;2022-07-29T04:53:47;4.82;;;1.73;;
68214;SDS011;55036;52.138;5.236;2022-07-29T04:56:14;3.42;;;1.70;;
68214;SDS011;55036;52.138;5.236;2022-07-29T04:58:41;3.08;;;1.70;;
68214;SDS011;55036;52.138;5.236;2022-07-29T05:01:07;3.95;;;1.90;;
68214;SDS011;55036;52.138;5.236;2022-07-29T05:03:34;3.58;;;1.88;;
68214;SDS011;55036;52.138;5.236;2022-07-29T05:06:01;3.55;;;1.85;;
68214;SDS011;55036;52.138;5.236;2022-07-29T05:08:28;2.42;;;1.95;;
68214;SDS011;55036;52.138;5.236;2022-07-29T05:10:55;4.70;;;2.08;;
68214;SDS011;55036;52.138;5.236;2022-07-29T05:13:22;3.35;;;1.83;;
68214;SDS011;55036;52.138;5.236;2022-07-29T05:15:48;3.03;;;1.50;;
68214;SDS011;55036;52.138;5.236;2022-07-29T05:18:15;2.65;;;2.00;;
68214;SDS011;55036;52.138;5.236;2022-07-29T05:20:42;3.13;;;1.70;;
68214;SDS011;55036;52.138;5.236;2022-07-29T05:23:09;7.93;;;2.00;;
68214;SDS011;55036;52.138;5.236;2022-07-29T05:25:38;4.40;;;1.80;;
68214;SDS011;55036;52.138;5.236;2022-07-29T05:28:09;5.53;;;2.00;;
68214;SDS011;55036;52.138;5.236;2022-07-29T05:30:37;5.63;;;2.10;;
68214;SDS011;55036;52.138;5.236;2022-07-29T05:33:04;4.78;;;1.95;;
68214;SDS011;55036;52.138;5.236;2022-07-29T05:35:31;6.03;;;2.05;;
68214;SDS011;55036;52.138;5.236;2022-07-29T05:37:57;2.65;;;1.80;;
68214;SDS011;55036;52.138;5.236;2022-07-29T05:40:24;4.32;;;2.03;;
68214;SDS011;55036;52.138;5.236;2022-07-29T05:42:51;6.82;;;1.90;;
68214;SDS011;55036;52.138;5.236;2022-07-29T05:45:18;4.22;;;2.08;;
68214;SDS011;55036;52.138;5.236;2022-07-29T05:47:44;5.43;;;2.15;;
68214;SDS011;55036;52.138;5.236;2022-07-29T05:50:11;3.20;;;2.33;;
68214;SDS011;55036;52.138;5.236;2022-07-29T05:52:38;4.53;;;2.33;;
68214;SDS011;55036;52.138;5.236;2022-07-29T05:55:05;3.40;;;2.25;;
68214;SDS011;55036;52.138;5.236;2022-07-29T05:57:32;3.90;;;2.17;;
68214;SDS011;55036;52.138;5.236;2022-07-29T05:59:59;5.45;;;1.65;;
68214;SDS011;55036;52.138;5.236;2022-07-29T06:02:26;7.90;;;2.83;;
68214;SDS011;55036;52.138;5.236;2022-07-29T06:04:53;5.32;;;1.80;;
68214;SDS011;55036;52.138;5.236;2022-07-29T06:07:20;4.95;;;2.10;;
68214;SDS011;55036;52.138;5.236;2022-07-29T06:09:47;4.63;;;1.75;;
68214;SDS011;55036;52.138;5.236;2022-07-29T06:12:13;3.33;;;1.90;;
68214;SDS011;55036;52.138;5.236;2022-07-29T06:14:40;5.15;;;2.15;;
68214;SDS011;55036;52.138;5.236;2022-07-29T06:17:07;6.03;;;3.03;;
68214;SDS011;55036;52.138;5.236;2022-07-29T06:19:34;2.90;;;1.92;;
68214;SDS011;55036;52.138;5.236;2022-07-29T06:22:02;6.72;;;2.13;;
68214;SDS011;55036;52.138;5.236;2022-07-29T06:24:29;4.50;;;1.92;;
68214;SDS011;55036;52.138;5.236;2022-07-29T06:26:56;5.15;;;2.22;;
68214;SDS011;55036;52.138;5.236;2022-07-29T06:29:23;3.67;;;1.90;;
68214;SDS011;55036;52.138;5.236;2022-07-29T06:31:50;4.80;;;1.98;;
68214;SDS011;55036;52.138;5.236;2022-07-29T06:34:17;4.65;;;2.17;;
68214;SDS011;55036;52.138;5.236;2022-07-29T06:36:45;3.70;;;2.15;;
68214;SDS011;55036;52.138;5.236;2022-07-29T06:39:13;5.85;;;2.40;;
68214;SDS011;55036;52.138;5.236;2022-07-29T06:41:40;4.88;;;2.00;;
68214;SDS011;55036;52.138;5.236;2022-07-29T06:44:07;4.05;;;2.40;;
68214;SDS011;55036;52.138;5.236;2022-07-29T06:46:34;5.90;;;2.30;;
68214;SDS011;55036;52.138;5.236;2022-07-29T06:49:01;6.28;;;2.25;;
68214;SDS011;55036;52.138;5.236;2022-07-29T06:51:28;3.53;;;1.98;;
68214;SDS011;55036;52.138;5.236;2022-07-29T06:53:55;4.85;;;1.95;;
68214;SDS011;55036;52.138;5.236;2022-07-29T06:56:31;6.55;;;2.33;;
68214;SDS011;55036;52.138;5.236;2022-07-29T06:59:05;6.07;;;2.20;;
68214;SDS011;55036;52.138;5.236;2022-07-29T07:01:32;4.93;;;1.88;;
68214;SDS011;55036;52.138;5.236;2022-07-29T07:03:59;3.67;;;2.05;;
68214;SDS011;55036;52.138;5.236;2022-07-29T07:06:26;3.83;;;2.40;;
68214;SDS011;55036;52.138;5.236;2022-07-29T07:08:53;2.88;;;2.05;;
68214;SDS011;55036;52.138;5.236;2022-07-29T07:11:20;7.05;;;2.60;;
68214;SDS011;55036;52.138;5.236;2022-07-29T07:13:47;4.47;;;2.22;;
68214;SDS011;55036;52.138;5.236;2022-07-29T07:16:14;4.63;;;2.58;;
68214;SDS011;55036;52.138;5.236;2022-07-29T07:18:41;4.30;;;2.30;;
68214;SDS011;55036;52.138;5.236;2022-07-29T07:21:08;10.63;;;2.60;;
68214;SDS011;55036;52.138;5.236;2022-07-29T07:23:34;4.82;;;2.00;;
68214;SDS011;55036;52.138;5.236;2022-07-29T07:26:01;4.78;;;2.00;;
68214;SDS011;55036;52.138;5.236;2022-07-29T07:28:29;6.03;;;2.53;;
68214;SDS011;55036;52.138;5.236;2022-07-29T07:30:55;8.00;;;2.70;;
68214;SDS011;55036;52.138;5.236;2022-07-29T07:33:22;4.05;;;2.10;;
68214;SDS011;55036;52.138;5.236;2022-07-29T07:35:49;4.95;;;2.20;;
68214;SDS011;55036;52.138;5.236;2022-07-29T07:38:16;4.60;;;2.53;;
68214;SDS011;55036;52.138;5.236;2022-07-29T07:40:43;4.07;;;2.28;;
68214;SDS011;55036;52.138;5.236;2022-07-29T07:43:09;14.30;;;2.63;;
68214;SDS011;55036;52.138;5.236;2022-07-29T07:45:36;4.68;;;2.08;;
68214;SDS011;55036;52.138;5.236;2022-07-29T07:48:04;7.60;;;2.17;;
68214;SDS011;55036;52.138;5.236;2022-07-29T07:50:31;7.05;;;2.28;;
68214;SDS011;55036;52.138;5.236;2022-07-29T07:52:58;6.25;;;2.45;;
68214;SDS011;55036;52.138;5.236;2022-07-29T07:55:25;4.90;;;2.40;;
68214;SDS011;55036;52.138;5.236;2022-07-29T07:57:52;4.50;;;2.85;;
68214;SDS011;55036;52.138;5.236;2022-07-29T08:00:20;6.82;;;2.88;;
68214;SDS011;55036;52.138;5.236;2022-07-29T08:02:49;4.80;;;2.30;;
68214;SDS011;55036;52.138;5.236;2022-07-29T08:05:16;6.32;;;2.63;;
68214;SDS011;55036;52.138;5.236;2022-07-29T08:07:44;4.88;;;2.90;;
68214;SDS011;55036;52.138;5.236;2022-07-29T08:10:13;4.65;;;2.55;;
68214;SDS011;55036;52.138;5.236;2022-07-29T08:12:42;3.38;;;2.05;;
68214;SDS011;55036;52.138;5.236;2022-07-29T08:15:09;3.80;;;2.33;;
68214;SDS011;55036;52.138;5.236;2022-07-29T08:17:36;4.70;;;2.00;;
68214;SDS011;55036;52.138;5.236;2022-07-29T08:20:03;6.35;;;2.25;;
68214;SDS011;55036;52.138;5.236;2022-07-29T08:22:30;6.47;;;2.60;;
68214;SDS011;55036;52.138;5.236;2022-07-29T08:24:57;5.20;;;3.17;;
68214;SDS011;55036;52.138;5.236;2022-07-29T08:27:23;6.57;;;2.88;;
68214;SDS011;55036;52.138;5.236;2022-07-29T08:30:09;7.25;;;2.50;;
68214;SDS011;55036;52.138;5.236;2022-07-29T08:32:36;4.38;;;2.30;;
68214;SDS011;55036;52.138;5.236;2022-07-29T08:35:19;4.28;;;2.35;;
68214;SDS011;55036;52.138;5.236;2022-07-29T08:37:47;5.85;;;2.85;;
68214;SDS011;55036;52.138;5.236;2022-07-29T08:40:14;6.15;;;2.58;;
68214;SDS011;55036;52.138;5.236;2022-07-29T08:42:41;3.78;;;2.42;;
68214;SDS011;55036;52.138;5.236;2022-07-29T08:45:08;4.88;;;2.17;;
68214;SDS011;55036;52.138;5.236;2022-07-29T08:47:35;5.15;;;2.47;;
68214;SDS011;55036;52.138;5.236;2022-07-29T08:50:09;6.50;;;2.30;;
68214;SDS011;55036;52.138;5.236;2022-07-29T08:52:37;5.63;;;2.78;;
68214;SDS011;55036;52.138;5.236;2022-07-29T08:55:06;9.75;;;2.60;;
68214;SDS011;55036;52.138;5.236;2022-07-29T08:57:34;13.30;;;2.70;;
68214;SDS011;55036;52.138;5.236;2022-07-29T09:00:05;3.85;;;2.22;;
68214;SDS011;55036;52.138;5.236;2022-07-29T09:02:39;6.85;;;2.35;;
68214;SDS011;55036;52.138;5.236;2022-07-29T09:05:13;5.28;;;2.40;;
68214;SDS011;55036;52.138;5.236;2022-07-29T09:07:40;5.55;;;2.15;;
68214;SDS011;55036;52.138;5.236;2022-07-29T09:10:09;4.57;;;1.77;;
68214;SDS011;55036;52.138;5.236;2022-07-29T09:12:36;4.32;;;2.10;;
68214;SDS011;55036;52.138;5.236;2022-07-29T09:15:04;3.72;;;1.98;;
68214;SDS011;55036;52.138;5.236;2022-07-29T09:22:43;6.00;;;2.30;;
68214;SDS011;55036;52.138;5.236;2022-07-29T09:25:13;4.85;;;1.90;;
68214;SDS011;55036;52.138;5.236;2022-07-29T09:27:40;6.63;;;2.10;;
68214;SDS011;55036;52.138;5.236;2022-07-29T09:30:07;6.07;;;1.80;;
68214;SDS011;55036;52.138;5.236;2022-07-29T09:32:54;3.17;;;1.80;;
68214;SDS011;55036;52.138;5.236;2022-07-29T09:35:24;4.57;;;2.20;;
68214;SDS011;55036;52.138;5.236;2022-07-29T09:37:52;4.93;;;2.03;;
68214;SDS011;55036;52.138;5.236;2022-07-29T09:40:26;6.00;;;2.00;;
68214;SDS011;55036;52.138;5.236;2022-07-29T09:42:54;4.80;;;1.88;;
68214;SDS011;55036;52.138;5.236;2022-07-29T09:45:30;4.93;;;1.83;;
68214;SDS011;55036;52.138;5.236;2022-07-29T09:47:59;4.75;;;1.67;;
68214;SDS011;55036;52.138;5.236;2022-07-29T09:50:39;7.38;;;1.90;;
68214;SDS011;55036;52.138;5.236;2022-07-29T09:53:07;5.13;;;2.03;;
68214;SDS011;55036;52.138;5.236;2022-07-29T09:55:50;5.10;;;2.22;;
68214;SDS011;55036;52.138;5.236;2022-07-29T09:58:18;8.80;;;1.85;;
68214;SDS011;55036;52.138;5.236;2022-07-29T10:00:46;4.47;;;2.03;;
68214;SDS011;55036;52.138;5.236;2022-07-29T10:03:14;5.20;;;2.10;;
68214;SDS011;55036;52.138;5.236;2022-07-29T10:05:42;4.25;;;1.83;;
68214;SDS011;55036;52.138;5.236;2022-07-29T10:08:10;3.75;;;1.92;;
68214;SDS011;55036;52.138;5.236;2022-07-29T10:10:39;4.93;;;1.80;;
68214;SDS011;55036;52.138;5.236;2022-07-29T10:13:14;6.90;;;1.55;;
68214;SDS011;55036;52.138;5.236;2022-07-29T10:15:42;4.13;;;1.58;;
68214;SDS011;55036;52.138;5.236;2022-07-29T10:18:12;6.28;;;1.83;;
68214;SDS011;55036;52.138;5.236;2022-07-29T10:20:40;5.30;;;2.20;;
68214;SDS011;55036;52.138;5.236;2022-07-29T10:23:08;10.00;;;2.20;;
68214;SDS011;55036;52.138;5.236;2022-07-29T10:25:35;6.57;;;2.10;;
68214;SDS011;55036;52.138;5.236;2022-07-29T10:28:02;3.60;;;1.70;;
68214;SDS011;55036;52.138;5.236;2022-07-29T10:30:29;7.55;;;1.88;;
68214;SDS011;55036;52.138;5.236;2022-07-29T10:44:05;5.68;;;1.90;;
68214;SDS011;55036;52.138;5.236;2022-07-29T10:46:42;13.43;;;2.00;;
68214;SDS011;55036;52.138;5.236;2022-07-29T10:59:40;8.50;;;1.73;;
68214;SDS011;55036;52.138;5.236;2022-07-29T11:05:17;8.48;;;2.10;;
68214;SDS011;55036;52.138;5.236;2022-07-29T11:14:06;4.63;;;1.70;;
68214;SDS011;55036;52.138;5.236;2022-07-29T11:19:41;7.95;;;1.80;;
68214;SDS011;55036;52.138;5.236;2022-07-29T11:22:32;5.88;;;1.90;;
68214;SDS011;55036;52.138;5.236;2022-07-29T11:28:16;5.53;;;1.67;;
68214;SDS011;55036;52.138;5.236;2022-07-29T11:30:51;7.47;;;1.35;;
68214;SDS011;55036;52.138;5.236;2022-07-29T11:36:18;6.95;;;1.80;;
68214;SDS011;55036;52.138;5.236;2022-07-29T11:38:53;4.45;;;1.70;;
68214;SDS011;55036;52.138;5.236;2022-07-29T11:44:59;4.57;;;1.55;;
68214;SDS011;55036;52.138;5.236;2022-07-29T11:47:52;6.75;;;1.90;;
68214;SDS011;55036;52.138;5.236;2022-07-29T11:50:34;6.05;;;1.90;;
68214;SDS011;55036;52.138;5.236;2022-07-29T11:53:10;4.43;;;1.60;;
68214;SDS011;55036;52.138;5.236;2022-07-29T11:55:41;2.97;;;1.60;;
68214;SDS011;55036;52.138;5.236;2022-07-29T11:58:16;5.53;;;1.73;;
68214;SDS011;55036;52.138;5.236;2022-07-29T12:00:50;6.22;;;2.10;;
68214;SDS011;55036;52.138;5.236;2022-07-29T12:03:23;6.45;;;2.25;;
68214;SDS011;55036;52.138;5.236;2022-07-29T12:06:01;6.78;;;2.55;;
68214;SDS011;55036;52.138;5.236;2022-07-29T12:08:38;8.02;;;1.75;;
68214;SDS011;55036;52.138;5.236;2022-07-29T12:11:14;3.72;;;1.50;;
68214;SDS011;55036;52.138;5.236;2022-07-29T12:13:47;3.83;;;1.80;;
68214;SDS011;55036;52.138;5.236;2022-07-29T12:16:15;4.85;;;2.25;;
68214;SDS011;55036;52.138;5.236;2022-07-29T12:19:04;6.32;;;2.35;;
68214;SDS011;55036;52.138;5.236;2022-07-29T12:21:50;4.07;;;2.17;;
68214;SDS011;55036;52.138;5.236;2022-07-29T12:24:22;5.47;;;2.78;;
68214;SDS011;55036;52.138;5.236;2022-07-29T12:26:55;6.60;;;2.90;;
68214;SDS011;55036;52.138;5.236;2022-07-29T12:29:24;3.75;;;2.78;;
68214;SDS011;55036;52.138;5.236;2022-07-29T12:32:01;7.35;;;2.92;;
68214;SDS011;55036;52.138;5.236;2022-07-29T12:34:30;5.32;;;1.85;;
68214;SDS011;55036;52.138;5.236;2022-07-29T12:36:58;8.60;;;2.97;;
68214;SDS011;55036;52.138;5.236;2022-07-29T12:39:27;6.93;;;2.67;;
68214;SDS011;55036;52.138;5.236;2022-07-29T12:41:55;5.30;;;2.45;;
68214;SDS011;55036;52.138;5.236;2022-07-29T12:44:50;7.72;;;2.85;;
68214;SDS011;55036;52.138;5.236;2022-07-29T12:47:17;7.05;;;2.47;;
68214;SDS011;55036;52.138;5.236;2022-07-29T12:49:46;7.80;;;2.78;;
68214;SDS011;55036;52.138;5.236;2022-07-29T12:52:23;8.18;;;2.47;;
68214;SDS011;55036;52.138;5.236;2022-07-29T12:54:54;8.05;;;2.47;;
68214;SDS011;55036;52.138;5.236;2022-07-29T12:57:21;4.65;;;1.92;;
68214;SDS011;55036;52.138;5.236;2022-07-29T12:59:59;7.80;;;1.80;;
68214;SDS011;55036;52.138;5.236;2022-07-29T13:04:59;5.18;;;1.90;;
68214;SDS011;55036;52.138;5.236;2022-07-29T13:07:27;4.75;;;1.98;;
68214;SDS011;55036;52.138;5.236;2022-07-29T13:10:17;4.80;;;1.75;;
68214;SDS011;55036;52.138;5.236;2022-07-29T13:15:29;6.68;;;2.05;;
68214;SDS011;55036;52.138;5.236;2022-07-29T13:17:57;6.68;;;2.15;;
68214;SDS011;55036;52.138;5.236;2022-07-29T13:20:25;6.05;;;2.20;;
68214;SDS011;55036;52.138;5.236;2022-07-29T13:22:56;4.55;;;1.60;;
68214;SDS011;55036;52.138;5.236;2022-07-29T13:27:58;8.23;;;2.00;;
68214;SDS011;55036;52.138;5.236;2022-07-29T13:30:25;6.13;;;2.00;;
68214;SDS011;55036;52.138;5.236;2022-07-29T13:32:52;6.57;;;2.20;;
68214;SDS011;55036;52.138;5.236;2022-07-29T13:35:19;9.63;;;2.20;;
68214;SDS011;55036;52.138;5.236;2022-07-29T13:37:46;4.88;;;2.05;;
68214;SDS011;55036;52.138;5.236;2022-07-29T13:40:13;4.88;;;2.08;;
68214;SDS011;55036;52.138;5.236;2022-07-29T13:42:40;3.83;;;2.00;;
68214;SDS011;55036;52.138;5.236;2022-07-29T13:45:08;5.10;;;1.92;;
68214;SDS011;55036;52.138;5.236;2022-07-29T13:47:37;6.97;;;2.05;;
68214;SDS011;55036;52.138;5.236;2022-07-29T13:50:04;4.93;;;2.00;;
68214;SDS011;55036;52.138;5.236;2022-07-29T13:52:32;5.10;;;1.90;;
68214;SDS011;55036;52.138;5.236;2022-07-29T13:54:59;4.80;;;2.10;;
68214;SDS011;55036;52.138;5.236;2022-07-29T13:57:26;6.40;;;2.40;;
68214;SDS011;55036;52.138;5.236;2022-07-29T13:59:54;6.55;;;2.45;;
68214;SDS011;55036;52.138;5.236;2022-07-29T14:02:21;5.10;;;1.85;;
68214;SDS011;55036;52.138;5.236;2022-07-29T14:04:51;6.13;;;2.03;;
68214;SDS011;55036;52.138;5.236;2022-07-29T14:07:18;5.15;;;1.40;;
68214;SDS011;55036;52.138;5.236;2022-07-29T14:09:45;4.43;;;1.95;;
68214;SDS011;55036;52.138;5.236;2022-07-29T14:12:12;4.60;;;1.75;;
68214;SDS011;55036;52.138;5.236;2022-07-29T14:14:39;4.68;;;1.98;;
68214;SDS011;55036;52.138;5.236;2022-07-29T14:17:06;6.95;;;1.95;;
68214;SDS011;55036;52.138;5.236;2022-07-29T14:19:33;5.85;;;1.73;;
68214;SDS011;55036;52.138;5.236;2022-07-29T14:22:02;3.65;;;1.80;;
68214;SDS011;55036;52.138;5.236;2022-07-29T14:24:32;3.85;;;1.80;;
68214;SDS011;55036;52.138;5.236;2022-07-29T14:27:02;4.07;;;1.80;;
68214;SDS011;55036;52.138;5.236;2022-07-29T14:29:29;2.63;;;1.40;;
68214;SDS011;55036;52.138;5.236;2022-07-29T14:32:04;7.60;;;1.90;;
68214;SDS011;55036;52.138;5.236;2022-07-29T14:34:32;4.53;;;1.70;;
68214;SDS011;55036;52.138;5.236;2022-07-29T14:36:59;3.50;;;1.60;;
68214;SDS011;55036;52.138;5.236;2022-07-29T14:39:26;4.93;;;1.55;;
68214;SDS011;55036;52.138;5.236;2022-07-29T14:41:57;5.03;;;1.80;;
68214;SDS011;55036;52.138;5.236;2022-07-29T14:44:24;5.03;;;1.88;;
68214;SDS011;55036;52.138;5.236;2022-07-29T14:46:58;3.90;;;1.48;;
68214;SDS011;55036;52.138;5.236;2022-07-29T14:49:26;4.30;;;1.40;;
68214;SDS011;55036;52.138;5.236;2022-07-29T14:51:53;5.45;;;1.50;;
68214;SDS011;55036;52.138;5.236;2022-07-29T14:54:20;5.75;;;1.70;;
68214;SDS011;55036;52.138;5.236;2022-07-29T14:56:47;7.70;;;2.05;;
68214;SDS011;55036;52.138;5.236;2022-07-29T14:59:15;6.53;;;2.03;;
68214;SDS011;55036;52.138;5.236;2022-07-29T15:01:42;4.40;;;1.42;;
68214;SDS011;55036;52.138;5.236;2022-07-29T15:04:09;8.90;;;2.20;;
68214;SDS011;55036;52.138;5.236;2022-07-29T15:06:36;6.03;;;1.90;;
68214;SDS011;55036;52.138;5.236;2022-07-29T15:09:03;4.68;;;1.50;;
68214;SDS011;55036;52.138;5.236;2022-07-29T15:11:30;7.43;;;1.77;;
68214;SDS011;55036;52.138;5.236;2022-07-29T15:14:03;5.55;;;1.90;;
68214;SDS011;55036;52.138;5.236;2022-07-29T15:16:35;3.65;;;1.70;;
68214;SDS011;55036;52.138;5.236;2022-07-29T15:19:03;5.50;;;1.50;;
68214;SDS011;55036;52.138;5.236;2022-07-29T15:21:31;3.88;;;1.17;;
68214;SDS011;55036;52.138;5.236;2022-07-29T15:23:58;5.05;;;1.52;;
68214;SDS011;55036;52.138;5.236;2022-07-29T15:26:27;3.60;;;1.27;;
68214;SDS011;55036;52.138;5.236;2022-07-29T15:28:54;5.72;;;1.50;;
68214;SDS011;55036;52.138;5.236;2022-07-29T15:31:22;3.28;;;1.45;;
68214;SDS011;55036;52.138;5.236;2022-07-29T15:33:49;5.28;;;1.38;;
68214;SDS011;55036;52.138;5.236;2022-07-29T15:36:22;4.45;;;1.50;;
68214;SDS011;55036;52.138;5.236;2022-07-29T15:39:08;5.13;;;1.55;;
68214;SDS011;55036;52.138;5.236;2022-07-29T15:41:35;5.22;;;1.88;;
68214;SDS011;55036;52.138;5.236;2022-07-29T15:44:02;3.88;;;1.95;;
68214;SDS011;55036;52.138;5.236;2022-07-29T15:46:29;3.80;;;1.98;;
68214;SDS011;55036;52.138;5.236;2022-07-29T15:49:14;6.75;;;1.73;;
68214;SDS011;55036;52.138;5.236;2022-07-29T15:51:41;4.30;;;1.80;;
68214;SDS011;55036;52.138;5.236;2022-07-29T15:54:08;4.05;;;1.70;;
68214;SDS011;55036;52.138;5.236;2022-07-29T15:56:35;3.15;;;2.20;;
68214;SDS011;55036;52.138;5.236;2022-07-29T15:59:02;4.85;;;2.22;;
68214;SDS011;55036;52.138;5.236;2022-07-29T16:01:28;5.53;;;2.33;;
68214;SDS011;55036;52.138;5.236;2022-07-29T16:03:56;4.28;;;2.20;;
68214;SDS011;55036;52.138;5.236;2022-07-29T16:06:23;5.03;;;1.83;;
68214;SDS011;55036;52.138;5.236;2022-07-29T16:08:50;5.57;;;2.42;;
68214;SDS011;55036;52.138;5.236;2022-07-29T16:11:17;7.03;;;2.63;;
68214;SDS011;55036;52.138;5.236;2022-07-29T16:13:43;7.10;;;2.05;;